Saint Clair, Michigan
Current Conditions -  °F | °C
As of 9:36 PM on Sunday 23 Nov 2014 (Local Time) from KPHN Reporting Station
Moderate Rain Moderate Rain  
Wind Chill: 10°   Ceiling: 5500
Heat Index: 10°   Visibility: 7mi
Dew Point:   Wind: 13mph
Humidity: 87%   Direction: 120°ESE
Pressure: 29.48"   Gusts: 21mph
Location:  42.82°N, 82.49°W
Report Text: KPHN 240236Z AUTO 12011G18KT 7SM RA SCT039 BKN055 OVC090 10/08 A2948 RMK AO2
Loading
Personal Weather Stations






























Interactive Weather Map New forecast layout! Learn more

10-Day Weather Forecast

Advertisements
Track Severe Weather on mobile